createdAt,value
2023-04-05T00:02:14.167Z,100910.13
2023-04-05T00:07:17.422Z,100911.44
2023-04-05T00:12:18.992Z,100910.63
2023-04-05T00:17:20.889Z,100909.34
2023-04-05T00:22:25.519Z,100911.94
2023-04-05T00:27:27.158Z,100911.53
2023-04-05T00:32:29.363Z,100905.34
2023-04-05T00:37:30.892Z,100904.09
2023-04-05T00:42:32.489Z,100898.66
2023-04-05T00:47:34.539Z,100899.88
2023-04-05T00:52:38.102Z,100909.94
2023-04-05T00:57:40.144Z,100911.94
2023-04-05T01:02:49.977Z,100913.81
2023-04-05T01:08:04.720Z,100902.94
2023-04-05T01:13:06.684Z,100897.84
2023-04-05T01:18:10.564Z,100903.84
2023-04-05T01:23:38.000Z,100900.41
2023-04-05T01:29:04.887Z,100902.00
2023-04-05T01:34:24.570Z,100882.69
2023-04-05T01:39:27.458Z,100880.63
2023-04-05T01:44:29.441Z,100872.22
2023-04-05T01:49:31.269Z,100872.66
2023-04-05T01:54:32.809Z,100866.75
2023-04-05T01:59:34.367Z,100864.19
2023-04-05T02:04:35.921Z,100867.72
2023-04-05T02:09:37.465Z,100862.34
2023-04-05T02:14:39.038Z,100850.75
2023-04-05T02:19:46.430Z,100853.00
2023-04-05T02:24:48.225Z,100857.78
2023-04-05T02:29:49.739Z,100855.50
2023-04-05T02:34:52.571Z,100857.31
2023-04-05T02:39:54.569Z,100861.03
2023-04-05T02:44:56.519Z,100857.59
2023-04-05T02:49:58.305Z,100871.06
2023-04-05T02:55:06.542Z,100860.53
2023-04-05T03:00:11.023Z,100861.41
2023-04-05T03:05:13.923Z,100852.59
2023-04-05T03:10:26.355Z,100849.28
2023-04-05T03:15:33.590Z,100864.97
2023-04-05T03:20:41.406Z,100855.56
2023-04-05T03:25:50.883Z,100871.59
2023-04-05T03:30:54.058Z,100872.31
2023-04-05T03:35:56.312Z,100867.25
2023-04-05T03:40:58.711Z,100863.50
2023-04-05T03:46:00.458Z,100861.09
2023-04-05T03:51:04.173Z,100869.94
2023-04-05T03:56:06.493Z,100863.63
2023-04-05T04:01:19.445Z,100859.41
2023-04-05T04:06:21.375Z,100849.25
2023-04-05T04:11:23.096Z,100850.84
2023-04-05T04:16:26.761Z,100849.47
2023-04-05T04:21:45.784Z,100851.44
2023-04-05T04:26:56.736Z,100858.44
2023-04-05T04:32:17.298Z,100860.91
2023-04-05T04:37:32.354Z,100862.81
2023-04-05T04:42:58.742Z,100852.50
2023-04-05T04:48:14.451Z,100861.94
2023-04-05T04:53:32.526Z,100855.53
2023-04-05T04:58:34.193Z,100851.53
2023-04-05T05:03:40.274Z,100858.94
2023-04-05T05:08:41.969Z,100858.75
2023-04-05T05:13:43.556Z,100851.06
2023-04-05T05:18:52.000Z,100853.84
2023-04-05T05:23:54.184Z,100859.84
2023-04-05T05:28:56.492Z,100858.50
2023-04-05T05:34:02.928Z,100851.72
2023-04-05T05:39:05.953Z,100871.38
2023-04-05T05:44:07.474Z,100878.69
2023-04-05T05:49:09.174Z,100883.03
2023-04-05T05:54:11.065Z,100885.97
2023-04-05T05:59:12.781Z,100892.03
2023-04-05T06:04:14.483Z,100894.06
2023-04-05T06:09:17.120Z,100902.84
2023-04-05T06:14:18.953Z,100896.28
2023-04-05T06:19:20.602Z,100891.06
2023-04-05T06:24:22.287Z,100895.59
2023-04-05T06:29:23.986Z,100884.50
2023-04-05T06:34:25.588Z,100875.81
2023-04-05T06:39:27.194Z,100872.75
2023-04-05T06:44:29.009Z,100857.22
2023-04-05T06:49:30.958Z,100857.41
2023-04-05T06:54:39.528Z,100846.63
2023-04-05T06:59:41.716Z,100849.94
2023-04-05T07:04:43.821Z,100845.47
2023-04-05T07:09:47.038Z,100842.69
2023-04-05T07:14:48.549Z,100843.09
2023-04-05T07:19:50.125Z,100838.19
2023-04-05T07:24:52.436Z,100841.31
2023-04-05T07:29:53.907Z,100838.38
2023-04-05T07:34:56.750Z,100838.22
2023-04-05T07:39:58.469Z,100839.63
2023-04-05T07:44:59.923Z,100825.75
2023-04-05T07:50:02.252Z,100824.56
2023-04-05T07:55:03.907Z,100829.66
2023-04-05T08:00:12.474Z,100837.91
2023-04-05T08:05:17.405Z,100834.50
2023-04-05T08:10:18.984Z,100838.19
2023-04-05T08:15:21.037Z,100808.03
2023-04-05T08:20:22.543Z,100820.69
2023-04-05T08:25:24.079Z,100822.47
2023-04-05T08:30:29.258Z,100810.13
2023-04-05T08:35:31.540Z,100817.50
2023-04-05T08:40:44.578Z,100812.50
2023-04-05T08:45:51.585Z,100796.69
2023-04-05T08:50:55.142Z,100790.50
2023-04-05T08:56:00.361Z,100798.72
2023-04-05T09:01:02.420Z,100811.25
2023-04-05T09:06:07.630Z,100806.28
2023-04-05T09:11:11.524Z,100771.41
2023-04-05T09:16:16.029Z,100772.00
2023-04-05T09:21:17.761Z,100761.03
2023-04-05T09:26:21.413Z,100738.75
2023-04-05T09:31:36.917Z,100734.41
2023-04-05T09:36:47.200Z,100738.44
2023-04-05T09:42:08.517Z,100712.88
2023-04-05T09:47:22.766Z,100709.38
2023-04-05T09:52:32.017Z,100693.72
2023-04-05T09:57:35.483Z,100689.13
2023-04-05T10:02:39.351Z,100703.09
2023-04-05T10:07:44.691Z,100697.53
2023-04-05T10:12:47.902Z,100703.88
2023-04-05T10:17:55.481Z,100683.19
2023-04-05T10:23:17.183Z,100690.06
2023-04-05T10:28:35.684Z,100690.66
2023-04-05T10:33:45.974Z,100694.13
2023-04-05T10:39:26.162Z,100686.25
2023-04-05T10:44:32.907Z,100687.59
2023-04-05T10:49:40.236Z,100674.63
2023-04-05T10:54:42.819Z,100664.63
2023-04-05T10:59:46.282Z,100666.63
2023-04-05T11:04:56.145Z,100670.84
2023-04-05T11:10:02.478Z,100642.84
2023-04-05T11:15:32.987Z,100653.78
2023-04-05T11:20:47.866Z,100666.03
2023-04-05T11:25:55.000Z,100658.13
2023-04-05T11:30:58.441Z,100648.03
2023-04-05T11:36:04.093Z,100652.06
2023-04-05T11:41:21.162Z,100636.78
2023-04-05T11:46:32.218Z,100620.47
2023-04-05T11:51:33.958Z,100620.25
2023-04-05T11:56:35.541Z,100611.88
2023-04-05T12:01:39.545Z,100630.19
2023-04-05T12:06:41.077Z,100623.06
2023-04-05T12:11:42.569Z,100625.78
2023-04-05T12:16:50.689Z,100593.69
2023-04-05T12:21:52.321Z,100616.53
2023-04-05T12:26:56.244Z,100609.22
2023-04-05T12:32:01.265Z,100596.00
2023-04-05T12:37:03.733Z,100591.19
2023-04-05T12:42:05.440Z,100567.88
2023-04-05T12:47:11.029Z,100574.19
2023-04-05T12:52:20.910Z,100587.22
2023-04-05T12:57:30.297Z,100580.47
2023-04-05T13:02:31.819Z,100569.56
2023-04-05T13:07:33.336Z,100567.91
2023-04-05T13:12:34.857Z,100573.56
2023-04-05T13:17:42.968Z,100567.47
2023-04-05T13:22:45.650Z,100564.94
2023-04-05T13:27:47.329Z,100541.00
2023-04-05T13:32:48.851Z,100538.44
2023-04-05T13:37:53.309Z,100526.06
2023-04-05T13:42:54.801Z,100515.78
2023-04-05T13:47:56.333Z,100519.56
2023-04-05T13:52:59.355Z,100520.81
2023-04-05T13:58:00.950Z,100503.59
2023-04-05T14:03:02.602Z,100494.34
2023-04-05T14:08:04.152Z,100509.47
2023-04-05T14:13:12.965Z,100473.09
2023-04-05T14:18:14.440Z,100486.31
2023-04-05T14:23:15.942Z,100463.84
2023-04-05T14:28:17.498Z,100484.03
2023-04-05T14:33:19.045Z,100469.75
2023-04-05T14:38:20.702Z,100461.28
2023-04-05T14:43:23.539Z,100461.69
2023-04-05T14:48:25.183Z,100463.59
2023-04-05T14:53:26.938Z,100475.19
2023-04-05T14:58:29.315Z,100477.88
2023-04-05T15:03:31.483Z,100465.25
2023-04-05T15:08:33.342Z,100453.91
2023-04-05T15:13:35.007Z,100442.34
2023-04-05T15:18:36.476Z,100445.91
2023-04-05T15:23:40.502Z,100452.88
2023-04-05T15:28:41.986Z,100444.09
2023-04-05T15:33:43.490Z,100437.38
2023-04-05T15:38:45.489Z,100436.97
2023-04-05T15:43:47.853Z,100429.81
2023-04-05T15:48:51.765Z,100433.16
2023-04-05T15:53:54.176Z,100426.66
2023-04-05T15:58:56.125Z,100424.34
2023-04-05T16:03:57.718Z,100433.38
2023-04-05T16:09:00.625Z,100415.75
2023-04-05T16:14:03.345Z,100420.13
2023-04-05T16:19:06.054Z,100430.69
2023-04-05T16:24:07.716Z,100393.69
2023-04-05T16:29:09.289Z,100406.97
2023-04-05T16:34:10.968Z,100416.84
2023-04-05T16:39:12.530Z,100432.81
2023-04-05T16:44:14.008Z,100420.66
2023-04-05T16:49:15.871Z,100428.03
2023-04-05T16:54:17.361Z,100422.81
2023-04-05T16:59:18.870Z,100419.25
2023-04-05T17:04:20.372Z,100430.81
2023-04-05T17:09:23.036Z,100441.69
2023-04-05T17:14:24.728Z,100437.09
2023-04-05T17:19:26.496Z,100440.88
2023-04-05T17:24:36.836Z,100441.72
2023-04-05T17:29:39.140Z,100434.38
2023-04-05T17:34:40.612Z,100445.03
2023-04-05T17:39:42.096Z,100447.53
2023-04-05T17:44:46.104Z,100447.69
2023-04-05T17:49:47.580Z,100462.00
2023-04-05T17:54:49.196Z,100455.63
2023-04-05T17:59:53.181Z,100465.41
2023-04-05T18:04:54.678Z,100452.50
2023-04-05T18:09:56.409Z,100460.69
2023-04-05T18:14:57.917Z,100464.72
2023-04-05T18:19:59.472Z,100473.53
2023-04-05T18:25:00.996Z,100481.56
2023-04-05T18:30:02.992Z,100496.72
2023-04-05T18:35:04.799Z,100510.69
2023-04-05T18:40:07.040Z,100516.91
2023-04-05T18:45:09.003Z,100527.97
2023-04-05T18:50:10.982Z,100536.97
2023-04-05T18:55:13.975Z,100544.53
2023-04-05T19:00:15.653Z,100551.38
2023-04-05T19:05:17.192Z,100560.97
2023-04-05T19:10:18.729Z,100573.44
2023-04-05T19:15:20.454Z,100584.69
2023-04-05T19:20:21.911Z,100593.84
2023-04-05T19:25:23.397Z,100597.13
2023-04-05T19:30:25.051Z,100604.91
2023-04-05T19:35:26.619Z,100602.03
2023-04-05T19:40:28.090Z,100602.72
2023-04-05T19:45:31.034Z,100604.06
2023-04-05T19:50:35.360Z,100624.97
2023-04-05T19:55:38.390Z,100617.88
2023-04-05T20:00:52.363Z,100625.44
2023-04-05T20:06:07.433Z,100631.78
2023-04-05T20:11:13.128Z,100637.84
2023-04-05T20:16:15.609Z,100628.16
2023-04-05T20:21:17.965Z,100632.31
2023-04-05T20:26:28.800Z,100634.47
2023-04-05T20:31:32.489Z,100625.16
2023-04-05T20:36:36.712Z,100623.44
2023-04-05T20:41:38.220Z,100621.91
2023-04-05T20:46:39.750Z,100628.28
2023-04-05T20:51:43.033Z,100632.16
2023-04-05T20:56:45.766Z,100633.00
2023-04-05T21:01:47.700Z,100627.59
2023-04-05T21:06:49.334Z,100621.16
2023-04-05T21:11:50.814Z,100635.75
2023-04-05T21:16:52.281Z,100618.78
2023-04-05T21:21:54.042Z,100622.56
2023-04-05T21:26:56.432Z,100621.81
2023-04-05T21:31:57.957Z,100620.88
2023-04-05T21:37:01.820Z,100625.88
2023-04-05T21:42:03.427Z,100624.94
2023-04-05T21:47:05.137Z,100618.66
2023-04-05T21:52:06.755Z,100619.03
2023-04-05T21:57:08.264Z,100616.84
2023-04-05T22:02:11.978Z,100624.84
2023-04-05T22:07:13.522Z,100619.47
2023-04-05T22:12:15.615Z,100630.56
2023-04-05T22:17:18.401Z,100640.25
2023-04-05T22:22:19.925Z,100639.41
2023-04-05T22:27:21.465Z,100638.47
2023-04-05T22:32:23.048Z,100624.72
2023-04-05T22:37:24.585Z,100633.47
2023-04-05T22:42:26.062Z,100632.75
2023-04-05T22:47:27.616Z,100631.53
2023-04-05T22:52:29.147Z,100634.72
2023-04-05T22:57:31.189Z,100634.31
2023-04-05T23:02:32.752Z,100634.78
2023-04-05T23:07:34.321Z,100629.59
2023-04-05T23:12:36.146Z,100637.41
2023-04-05T23:17:37.743Z,100634.44
2023-04-05T23:22:39.275Z,100643.38
2023-04-05T23:27:40.803Z,100633.59
2023-04-05T23:32:42.299Z,100634.75
2023-04-05T23:37:45.561Z,100627.69
2023-04-05T23:42:47.090Z,100619.50
2023-04-05T23:47:48.705Z,100616.81
2023-04-05T23:52:50.500Z,100621.66
2023-04-05T23:57:53.292Z,100618.53
